Time;durP1;ratioP1;P1;durP2;ratioP2;P2;SDS_P1;SDS_P2;PMS_P1;PMS_P2;Temp;Humidity;BMP_temperature;BMP_pressure;BME280_temperature;BME280_humidity;BME280_pressure;Samples;Min_cycle;Max_cycle;Signal;HPM_P1;HPM_P2
2022/05/10 00:00:11;;;;;;;10.90;10.20;;;15.80;99.90;;;;;;6146565;23;20520;-81
2022/05/10 00:02:38;;;;;;;11.77;10.83;;;15.70;99.90;;;;;;6149732;23;20506;-81
2022/05/10 00:05:06;;;;;;;11.70;10.90;;;15.70;99.90;;;;;;6148602;23;20451;-81
2022/05/10 00:07:37;;;;;;;11.50;10.70;;;15.60;99.90;;;;;;6149364;23;20467;-81
2022/05/10 00:10:06;;;;;;;12.07;11.27;;;15.60;99.90;;;;;;6149131;23;20504;-81
2022/05/10 00:12:34;;;;;;;11.17;10.40;;;15.50;99.90;;;;;;6149351;23;20536;-82
2022/05/10 00:15:00;;;;;;;11.77;11.00;;;15.40;99.90;;;;;;6147733;23;20477;-81
2022/05/10 00:17:34;;;;;;;11.57;10.77;;;15.40;99.90;;;;;;6150955;23;20478;-81
2022/05/10 00:20:01;;;;;;;12.23;11.27;;;15.40;99.90;;;;;;6148435;23;20437;-81
2022/05/10 00:22:28;;;;;;;12.03;11.10;;;15.30;99.90;;;;;;6148658;23;20467;-81
2022/05/10 00:24:56;;;;;;;12.90;11.80;;;15.30;99.90;;;;;;6148341;23;20521;-81
2022/05/10 00:27:23;;;;;;;12.20;11.30;;;15.30;99.90;;;;;;6148128;23;20440;-81
2022/05/10 00:29:50;;;;;;;12.37;11.53;;;15.30;99.90;;;;;;6148018;23;20443;-81
2022/05/10 00:32:17;;;;;;;13.10;12.20;;;15.20;99.90;;;;;;6148538;23;20513;-82
2022/05/10 00:34:47;;;;;;;12.83;11.93;;;15.20;99.90;;;;;;6148750;23;20447;-81
2022/05/10 00:37:17;;;;;;;12.70;11.80;;;15.10;99.90;;;;;;6150339;23;20435;-81
2022/05/10 00:39:44;;;;;;;13.27;12.27;;;15.10;99.90;;;;;;6148140;23;20468;-82
2022/05/10 00:42:16;;;;;;;12.93;12.00;;;15.00;99.90;;;;;;6149187;23;20873;-81
2022/05/10 00:44:49;;;;;;;13.77;12.60;;;15.00;99.90;;;;;;6147577;23;20557;-81
2022/05/10 00:47:21;;;;;;;14.07;12.80;;;14.90;99.90;;;;;;6148323;23;20438;-82
2022/05/10 00:49:55;;;;;;;14.00;12.90;;;14.90;99.90;;;;;;6145683;23;20456;-82
2022/05/10 00:52:28;;;;;;;14.53;13.50;;;14.80;99.90;;;;;;6148487;23;20478;-82
2022/05/10 00:55:05;;;;;;;15.10;14.07;;;14.80;99.90;;;;;;6148764;23;20446;-82
2022/05/10 00:57:36;;;;;;;14.67;13.67;;;14.70;99.90;;;;;;6148525;23;20449;-82
2022/05/10 01:00:10;;;;;;;14.77;13.57;;;14.60;99.90;;;;;;6147921;23;20490;-82
2022/05/10 01:02:49;;;;;;;15.20;14.10;;;14.60;99.90;;;;;;6149236;23;20462;-82
2022/05/10 01:05:23;;;;;;;15.53;14.23;;;14.50;99.90;;;;;;6150177;23;20450;-81
2022/05/10 01:07:58;;;;;;;15.10;14.00;;;14.40;99.90;;;;;;6148069;23;20447;-81
2022/05/10 01:10:32;;;;;;;15.37;14.27;;;14.30;99.90;;;;;;6143900;23;20440;-82
2022/05/10 01:13:11;;;;;;;16.13;14.82;;;14.20;99.90;;;;;;6149799;23;20469;-82
2022/05/10 01:15:41;;;;;;;16.00;14.90;;;14.20;99.90;;;;;;6147143;23;20220;-81
2022/05/10 01:18:08;;;;;;;15.55;14.35;;;14.10;99.90;;;;;;6150564;23;20433;-81
2022/05/10 01:20:44;;;;;;;16.85;15.50;;;14.10;99.90;;;;;;6141427;23;20650;-81
2022/05/10 01:23:39;;;;;;;16.90;15.60;;;14.00;99.90;;;;;;6146835;23;20214;-82
2022/05/10 01:26:13;;;;;;;19.60;18.10;;;14.00;99.90;;;;;;6147384;23;20520;-82
2022/05/10 01:28:46;;;;;;;20.43;18.83;;;13.90;99.90;;;;;;6145449;23;20441;-81
2022/05/10 01:31:20;;;;;;;19.43;17.93;;;13.90;99.90;;;;;;6146598;23;20495;-81
2022/05/10 01:33:49;;;;;;;21.23;19.63;;;13.90;99.90;;;;;;6145563;23;20475;-81
2022/05/10 01:36:27;;;;;;;21.15;19.52;;;13.90;99.90;;;;;;6148692;23;20441;-81
2022/05/10 01:39:03;;;;;;;20.17;18.57;;;13.80;99.90;;;;;;6135980;23;20524;-80
2022/05/10 01:41:37;;;;;;;21.60;19.80;;;13.80;99.90;;;;;;6147222;23;21005;-81
2022/05/10 01:44:14;;;;;;;21.25;19.65;;;13.60;99.90;;;;;;6142581;23;20548;-81
2022/05/10 01:46:41;;;;;;;20.83;19.17;;;13.70;99.90;;;;;;6123204;23;20275;-81
2022/05/10 01:49:27;;;;;;;22.37;20.57;;;13.70;99.90;;;;;;6148979;23;20520;-81
2022/05/10 01:52:00;;;;;;;21.38;19.77;;;13.60;99.90;;;;;;6121922;23;20460;-81
2022/05/10 01:55:13;;;;;;;22.52;20.60;;;13.60;99.90;;;;;;6137687;23;20194;-81
2022/05/10 01:57:41;;;;;;;21.60;19.70;;;13.60;99.90;;;;;;6098504;23;20584;-81
2022/05/10 02:00:14;;;;;;;21.60;19.70;;;13.60;99.90;;;;;;6143650;23;20472;-81
2022/05/10 02:02:45;;;;;;;21.25;19.55;;;13.60;99.90;;;;;;6146269;23;21025;-81
2022/05/10 02:05:20;;;;;;;23.17;21.33;;;13.60;99.90;;;;;;6148709;23;20245;-81
2022/05/10 02:07:51;;;;;;;21.80;20.10;;;13.50;99.90;;;;;;6147554;23;20437;-81
2022/05/10 02:10:26;;;;;;;23.55;21.75;;;13.50;99.90;;;;;;6139054;23;20588;-81
2022/05/10 02:13:00;;;;;;;23.50;21.60;;;13.50;99.90;;;;;;6148348;23;20592;-81
2022/05/10 02:15:36;;;;;;;22.42;20.48;;;13.50;99.90;;;;;;6147443;23;20269;-81
2022/05/10 02:18:10;;;;;;;22.55;20.75;;;13.50;99.90;;;;;;6149438;23;20645;-80
2022/05/10 02:20:43;;;;;;;21.92;20.23;;;13.50;99.90;;;;;;6144504;23;20620;-80
2022/05/10 02:23:14;;;;;;;22.25;20.65;;;13.50;99.90;;;;;;6146722;23;20239;-80
2022/05/10 02:25:46;;;;;;;22.80;21.00;;;13.40;99.90;;;;;;6148337;23;20191;-81
2022/05/10 02:28:20;;;;;;;21.85;20.15;;;13.40;99.90;;;;;;6147335;23;20273;-81
2022/05/10 02:30:51;;;;;;;22.15;20.35;;;13.40;99.90;;;;;;6147891;23;20210;-81
2022/05/10 02:33:18;;;;;;;21.40;19.58;;;13.40;99.90;;;;;;6149766;23;20187;-80
2022/05/10 02:35:49;;;;;;;21.13;19.45;;;13.40;99.90;;;;;;6147898;23;20244;-80
2022/05/10 02:38:19;;;;;;;21.80;20.00;;;13.40;99.90;;;;;;6149000;23;20218;-80
2022/05/10 02:40:47;;;;;;;21.95;20.25;;;13.40;99.90;;;;;;6141704;23;20264;-80
2022/05/10 02:43:18;;;;;;;22.27;20.48;;;13.40;99.90;;;;;;6146496;23;20210;-80
2022/05/10 02:45:45;;;;;;;22.58;20.77;;;13.40;99.90;;;;;;6149457;23;20649;-81
2022/05/10 02:48:22;;;;;;;22.75;20.85;;;13.30;99.90;;;;;;6149642;23;20707;-80
2022/05/10 02:50:49;;;;;;;21.65;19.95;;;13.30;99.90;;;;;;6138521;23;20296;-81
2022/05/10 02:53:16;;;;;;;21.63;20.03;;;13.30;99.90;;;;;;6148358;23;20187;-80
2022/05/10 02:55:51;;;;;;;21.23;19.52;;;13.20;99.90;;;;;;6145344;23;20538;-81
2022/05/10 02:58:27;;;;;;;22.92;21.05;;;13.20;99.90;;;;;;6143779;23;20269;-80
2022/05/10 03:01:09;;;;;;;21.00;19.30;;;13.10;99.90;;;;;;6149215;23;20212;-80
2022/05/10 03:03:38;;;;;;;23.53;21.63;;;13.10;99.90;;;;;;6149092;23;20217;-81
2022/05/10 03:06:05;;;;;;;22.88;20.90;;;13.10;99.90;;;;;;6124166;23;20473;-81
2022/05/10 03:08:32;;;;;;;22.48;20.77;;;13.10;99.90;;;;;;6138951;23;20683;-80
2022/05/10 03:11:00;;;;;;;22.53;20.80;;;13.00;99.90;;;;;;6138427;23;20206;-81
2022/05/10 03:13:27;;;;;;;22.08;20.17;;;12.90;99.90;;;;;;6149975;23;20464;-81
2022/05/10 03:15:54;;;;;;;22.60;20.77;;;12.90;99.90;;;;;;6149446;23;20248;-81
2022/05/10 03:18:21;;;;;;;22.17;20.48;;;12.80;99.90;;;;;;6148847;23;20270;-81
2022/05/10 03:20:49;;;;;;;22.85;20.95;;;12.80;99.90;;;;;;6140688;23;20242;-81
2022/05/10 03:23:16;;;;;;;23.23;21.52;;;12.90;99.90;;;;;;6149505;23;20222;-81
2022/05/10 03:25:43;;;;;;;22.77;21.00;;;12.80;99.90;;;;;;6147887;23;20260;-80
2022/05/10 03:28:10;;;;;;;22.67;20.63;;;12.80;99.90;;;;;;6150599;23;20186;-81
2022/05/10 03:30:37;;;;;;;22.67;20.92;;;12.70;99.90;;;;;;6147975;23;20207;-81
2022/05/10 03:33:05;;;;;;;22.77;21.08;;;12.70;99.90;;;;;;6149459;23;20187;-81
2022/05/10 03:35:32;;;;;;;22.27;20.52;;;12.60;99.90;;;;;;6130275;23;20269;-81
2022/05/10 03:38:00;;;;;;;22.50;20.55;;;12.60;99.90;;;;;;6146163;23;20187;-81
2022/05/10 03:40:28;;;;;;;21.75;19.95;;;12.60;99.90;;;;;;6150117;23;20638;-81
2022/05/10 03:42:55;;;;;;;20.75;19.10;;;12.60;99.90;;;;;;6148932;23;20190;-81
2022/05/10 03:45:24;;;;;;;20.95;19.35;;;12.60;99.90;;;;;;6149406;23;20210;-81
2022/05/10 03:47:52;;;;;;;23.55;21.55;;;12.60;99.90;;;;;;6146887;23;20190;-81
2022/05/10 03:50:22;;;;;;;23.55;21.55;;;12.50;99.90;;;;;;6148272;23;20256;-81
2022/05/10 03:52:49;;;;;;;23.35;21.45;;;12.50;99.90;;;;;;6144198;23;20269;-81
2022/05/10 03:55:22;;;;;;;23.25;21.27;;;12.40;99.90;;;;;;6126756;23;20266;-81
2022/05/10 03:57:49;;;;;;;23.17;21.08;;;12.40;99.90;;;;;;6135458;23;20183;-81
2022/05/10 04:00:19;;;;;;;23.38;21.35;;;12.40;99.90;;;;;;6146441;22;20314;-84
2022/05/10 04:02:46;;;;;;;23.73;21.95;;;12.40;99.90;;;;;;6097355;23;20192;-85
2022/05/10 04:05:15;;;;;;;24.50;22.65;;;12.40;99.90;;;;;;6120262;23;20285;-85
2022/05/10 04:07:43;;;;;;;24.10;22.20;;;12.40;99.90;;;;;;6115164;23;20219;-85
2022/05/10 04:10:12;;;;;;;24.58;22.65;;;12.50;99.90;;;;;;6119458;23;20286;-86
2022/05/10 04:12:41;;;;;;;24.00;22.00;;;12.40;99.90;;;;;;6116256;23;20191;-86
2022/05/10 04:15:10;;;;;;;23.42;21.55;;;12.40;99.90;;;;;;6149923;23;20211;-85
2022/05/10 04:17:37;;;;;;;23.50;21.60;;;12.40;99.90;;;;;;6111060;23;20488;-87
2022/05/10 04:20:06;;;;;;;23.17;21.35;;;12.40;99.90;;;;;;6103037;23;20219;-86
2022/05/10 04:22:33;;;;;;;24.80;22.65;;;12.40;99.90;;;;;;6102013;23;20187;-86
2022/05/10 04:25:00;;;;;;;23.38;21.58;;;12.50;99.90;;;;;;6112166;23;20682;-86
2022/05/10 04:27:28;;;;;;;22.80;21.00;;;12.40;99.90;;;;;;6119727;23;20187;-87
2022/05/10 04:29:56;;;;;;;24.25;22.35;;;12.40;99.90;;;;;;6107849;23;20215;-85
2022/05/10 04:32:24;;;;;;;24.90;22.70;;;12.50;99.90;;;;;;6103930;23;20199;-86
2022/05/10 04:34:51;;;;;;;24.17;22.27;;;12.50;99.90;;;;;;6101875;23;20260;-85
2022/05/10 04:37:18;;;;;;;24.80;22.75;;;12.50;99.90;;;;;;6124159;23;20247;-85
2022/05/10 04:42:29;;;;;;;23.08;21.13;;;12.50;99.90;;;;;;6115407;23;20191;-85
2022/05/10 04:44:57;;;;;;;25.45;23.35;;;12.50;99.90;;;;;;6116486;23;20219;-88
2022/05/10 04:47:26;;;;;;;24.10;22.20;;;12.50;99.90;;;;;;6112427;23;20356;-85
2022/05/10 04:49:53;;;;;;;24.73;22.33;;;12.50;99.90;;;;;;6103258;23;20634;-86
2022/05/10 04:52:20;;;;;;;24.60;22.67;;;12.60;99.90;;;;;;6109429;23;20184;-86
2022/05/10 04:54:47;;;;;;;26.50;24.25;;;12.60;99.90;;;;;;6114993;23;20258;-85
2022/05/10 04:57:15;;;;;;;23.70;21.70;;;12.60;99.90;;;;;;6117762;23;20211;-89
2022/05/10 04:59:42;;;;;;;24.40;22.40;;;12.70;99.90;;;;;;6106839;23;20681;-88
2022/05/10 05:02:10;;;;;;;24.85;22.77;;;12.70;99.90;;;;;;6110780;23;21076;-87
2022/05/10 05:04:37;;;;;;;24.60;22.77;;;12.70;99.90;;;;;;6106641;23;20211;-88
2022/05/10 05:07:05;;;;;;;25.40;23.30;;;12.70;99.90;;;;;;6116776;23;20233;-88
2022/05/10 05:09:32;;;;;;;24.30;22.30;;;12.70;99.90;;;;;;6109418;23;20294;-90
2022/05/10 05:11:59;;;;;;;25.13;23.13;;;12.80;99.90;;;;;;6110010;23;20270;-85
2022/05/10 05:14:26;;;;;;;24.90;22.90;;;12.80;99.90;;;;;;6113771;23;20191;-86
2022/05/10 05:16:56;;;;;;;24.40;22.45;;;12.90;99.90;;;;;;6109836;23;20196;-86
2022/05/10 05:19:26;;;;;;;23.83;21.92;;;13.00;99.90;;;;;;6115855;23;20605;-85
2022/05/10 05:21:53;;;;;;;22.73;20.90;;;13.10;99.90;;;;;;6119781;23;20262;-85
2022/05/10 05:24:57;;;;;;;23.95;22.00;;;13.20;99.90;;;;;;6133078;23;20188;-85
2022/05/10 05:27:24;;;;;;;22.00;20.20;;;13.40;99.90;;;;;;6107791;23;20668;-84
2022/05/10 05:29:52;;;;;;;22.40;20.53;;;13.50;99.90;;;;;;6112206;23;20258;-84
2022/05/10 05:35:38;;;;;;;21.75;20.05;;;13.60;99.90;;;;;;6215956;22;20948;-88
2022/05/10 05:38:16;;;;;;;23.10;21.17;;;13.70;99.90;;;;;;6230071;23;20410;-88
2022/05/10 05:40:43;;;;;;;22.48;20.30;;;13.80;99.90;;;;;;6204925;23;20495;-87
2022/05/10 05:43:17;;;;;;;21.30;19.50;;;13.90;99.90;;;;;;6203404;23;20711;-88
2022/05/10 05:45:44;;;;;;;20.57;18.93;;;14.10;99.90;;;;;;6194279;23;20651;-88
2022/05/10 05:48:12;;;;;;;21.40;19.73;;;14.30;99.90;;;;;;6195860;23;20443;-88
2022/05/10 05:50:41;;;;;;;20.10;18.30;;;14.40;99.90;;;;;;6201254;23;20504;-89
2022/05/10 05:53:08;;;;;;;20.70;19.10;;;14.50;99.90;;;;;;6191175;23;20581;-89
2022/05/10 05:55:36;;;;;;;19.90;18.40;;;14.60;99.90;;;;;;6196263;23;20488;-89
2022/05/10 05:58:03;;;;;;;19.47;17.93;;;14.70;99.90;;;;;;6205458;23;20428;-89
2022/05/10 06:00:31;;;;;;;20.53;18.80;;;14.80;99.90;;;;;;6196332;23;20460;-87
2022/05/10 06:02:58;;;;;;;18.27;16.93;;;15.00;99.90;;;;;;6195502;23;20463;-87
2022/05/10 06:05:27;;;;;;;17.93;16.53;;;15.20;99.90;;;;;;6190424;23;20882;-86
2022/05/10 06:07:55;;;;;;;17.60;16.30;;;15.30;99.90;;;;;;6194817;23;20438;-86
2022/05/10 06:10:28;;;;;;;17.43;16.23;;;15.40;99.90;;;;;;6199575;23;20591;-86
2022/05/10 06:12:55;;;;;;;18.60;17.10;;;15.50;99.90;;;;;;6214754;23;20441;-86
2022/05/10 06:15:22;;;;;;;17.53;16.23;;;15.60;99.90;;;;;;6210551;23;20493;-85
2022/05/10 06:17:50;;;;;;;17.60;16.10;;;15.70;99.90;;;;;;6190535;23;20948;-87
2022/05/10 06:20:20;;;;;;;18.10;16.70;;;15.90;99.90;;;;;;6190290;23;20540;-86
2022/05/10 06:22:48;;;;;;;16.87;15.67;;;16.00;99.90;;;;;;6188519;23;20431;-87
2022/05/10 06:25:19;;;;;;;17.03;15.60;;;16.10;99.90;;;;;;6186552;23;20925;-86
2022/05/10 06:27:46;;;;;;;16.63;15.43;;;16.20;99.90;;;;;;6198806;23;20452;-87
2022/05/10 06:30:14;;;;;;;16.07;14.80;;;16.40;99.90;;;;;;6201081;23;20525;-87
2022/05/10 06:32:41;;;;;;;17.53;16.23;;;16.40;99.90;;;;;;6194449;23;20532;-85
2022/05/10 06:35:09;;;;;;;16.63;15.37;;;16.40;99.90;;;;;;6204332;23;20473;-85
2022/05/10 06:40:22;;;;;;;16.60;15.40;;;16.50;99.90;;;;;;6187498;23;20523;-85
2022/05/10 06:42:50;;;;;;;17.20;15.80;;;16.60;99.90;;;;;;6187755;23;20442;-85
2022/05/10 06:45:19;;;;;;;16.97;15.70;;;16.80;99.90;;;;;;6191783;23;20523;-85
2022/05/10 06:47:49;;;;;;;16.07;14.77;;;16.90;99.90;;;;;;6186983;23;20916;-85
2022/05/10 06:50:18;;;;;;;16.00;14.90;;;17.00;99.90;;;;;;6191028;23;20487;-85
2022/05/10 06:52:45;;;;;;;15.90;14.60;;;17.20;99.90;;;;;;6200347;23;20453;-85
2022/05/10 06:55:13;;;;;;;15.30;14.20;;;17.40;99.90;;;;;;6187833;23;20551;-86
2022/05/10 06:57:41;;;;;;;17.20;15.90;;;17.60;99.90;;;;;;6186689;23;20955;-85
2022/05/10 07:00:11;;;;;;;17.37;16.17;;;17.90;99.90;;;;;;6199656;23;21002;-86
2022/05/10 07:02:38;;;;;;;14.33;13.30;;;18.00;99.90;;;;;;6185435;23;20946;-85
2022/05/10 07:05:08;;;;;;;16.93;15.63;;;18.20;99.90;;;;;;6182954;23;20459;-84
2022/05/10 07:07:35;;;;;;;15.70;14.50;;;18.50;99.90;;;;;;6177590;23;20442;-85
2022/05/10 07:10:02;;;;;;;15.77;14.47;;;18.70;99.90;;;;;;6179502;23;20489;-85
2022/05/10 07:12:29;;;;;;;14.50;13.50;;;18.90;99.90;;;;;;6193776;23;20431;-86
2022/05/10 07:14:57;;;;;;;15.13;13.83;;;19.10;99.90;;;;;;6177239;23;20833;-85
2022/05/10 07:17:24;;;;;;;14.83;13.73;;;19.40;99.90;;;;;;6194745;23;20977;-85
2022/05/10 07:19:51;;;;;;;14.53;13.43;;;19.70;99.90;;;;;;6190107;23;20464;-85
2022/05/10 07:22:18;;;;;;;14.43;13.33;;;20.20;99.90;;;;;;6201559;23;20431;-84
2022/05/10 07:24:45;;;;;;;13.70;12.67;;;20.50;99.90;;;;;;6182684;23;20444;-86
2022/05/10 07:27:12;;;;;;;14.13;12.93;;;20.70;99.90;;;;;;6195334;23;20433;-86
2022/05/10 07:29:39;;;;;;;15.27;14.10;;;21.00;99.90;;;;;;6183165;23;20488;-86
2022/05/10 07:32:09;;;;;;;14.47;13.43;;;21.40;99.90;;;;;;6178484;23;20606;-85
2022/05/10 07:34:36;;;;;;;14.00;13.00;;;21.70;99.90;;;;;;6187061;23;20553;-85
2022/05/10 07:37:03;;;;;;;12.33;11.43;;;22.00;99.90;;;;;;6183177;23;20807;-86
2022/05/10 07:39:30;;;;;;;11.33;10.53;;;22.20;99.90;;;;;;6201408;23;20496;-86
2022/05/10 07:41:59;;;;;;;11.23;10.37;;;22.50;99.90;;;;;;6206932;23;20472;-86
2022/05/10 07:44:26;;;;;;;10.73;9.80;;;22.80;99.90;;;;;;6205431;23;20568;-86
2022/05/10 07:46:53;;;;;;;11.50;10.70;;;23.20;99.90;;;;;;6195724;23;20513;-86
2022/05/10 07:49:22;;;;;;;10.77;10.00;;;23.60;99.90;;;;;;6179590;23;20462;-86
2022/05/10 07:51:51;;;;;;;10.20;9.53;;;23.90;99.90;;;;;;6196694;23;20445;-85
2022/05/10 07:54:18;;;;;;;9.73;9.03;;;24.30;99.90;;;;;;6192154;23;20534;-85
2022/05/10 07:56:45;;;;;;;9.23;8.53;;;24.90;99.90;;;;;;6184691;23;20435;-85
2022/05/10 07:59:12;;;;;;;9.93;9.27;;;25.30;99.90;;;;;;6191104;23;20432;-85
2022/05/10 08:01:40;;;;;;;10.20;9.53;;;25.50;99.90;;;;;;6183245;23;20983;-86
2022/05/10 08:04:08;;;;;;;9.93;9.17;;;25.60;99.90;;;;;;6182389;23;20446;-86
2022/05/10 08:06:36;;;;;;;10.00;9.20;;;25.50;99.90;;;;;;6182757;23;20488;-86
2022/05/10 08:09:04;;;;;;;10.43;9.73;;;25.30;99.90;;;;;;6187014;23;20445;-86
2022/05/10 08:11:31;;;;;;;9.80;9.20;;;25.30;99.90;;;;;;6191590;23;20525;-85
2022/05/10 08:13:58;;;;;;;9.40;8.67;;;25.20;99.90;;;;;;6186733;23;20441;-86
2022/05/10 08:16:26;;;;;;;9.07;8.27;;;25.40;99.90;;;;;;6195610;23;20428;-86
2022/05/10 08:18:53;;;;;;;8.73;8.23;;;25.60;99.90;;;;;;6192924;23;20423;-86
2022/05/10 08:21:20;;;;;;;9.70;9.10;;;26.00;99.10;;;;;;6190170;23;20531;-85
2022/05/10 08:23:52;;;;;;;9.50;8.80;;;26.30;98.10;;;;;;6216036;23;20928;-85
2022/05/10 08:26:19;;;;;;;11.10;9.60;;;26.60;97.50;;;;;;6199859;23;20427;-78
2022/05/10 08:28:46;;;;;;;10.07;9.20;;;27.00;96.80;;;;;;6194166;23;20451;-78
2022/05/10 08:31:14;;;;;;;8.90;8.10;;;27.10;95.50;;;;;;6195299;23;20446;-78
2022/05/10 08:33:44;;;;;;;8.40;7.90;;;27.20;95.60;;;;;;6186731;23;20786;-79
2022/05/10 08:36:11;;;;;;;8.53;7.93;;;27.50;94.60;;;;;;6196513;23;20976;-79
2022/05/10 08:38:39;;;;;;;8.70;8.00;;;27.80;94.40;;;;;;6197956;23;20844;-77
2022/05/10 08:41:12;;;;;;;9.30;8.53;;;27.70;94.40;;;;;;6213319;23;20489;-79
2022/05/10 08:43:42;;;;;;;8.20;7.70;;;28.10;92.90;;;;;;6208130;23;20431;-78
2022/05/10 08:46:15;;;;;;;9.77;9.07;;;28.20;93.10;;;;;;6189219;23;20415;-79
2022/05/10 08:48:46;;;;;;;8.30;7.70;;;28.50;91.70;;;;;;6188754;23;20434;-77
2022/05/10 08:51:15;;;;;;;8.47;7.77;;;28.70;91.40;;;;;;6190739;23;20448;-78
2022/05/10 08:53:42;;;;;;;9.00;8.20;;;29.00;91.10;;;;;;6191888;23;20834;-78
2022/05/10 08:56:16;;;;;;;8.90;8.10;;;29.60;90.20;;;;;;6195154;23;20520;-78
2022/05/10 08:58:51;;;;;;;8.33;7.70;;;29.80;89.40;;;;;;6180850;23;20475;-78
2022/05/10 09:01:22;;;;;;;9.13;8.50;;;30.20;86.70;;;;;;6179300;23;20432;-78
2022/05/10 09:03:57;;;;;;;8.00;7.50;;;30.20;85.10;;;;;;6185744;23;20514;-78
2022/05/10 09:06:35;;;;;;;7.60;7.10;;;30.20;84.50;;;;;;6189096;23;20463;-78
2022/05/10 09:09:17;;;;;;;8.20;7.60;;;30.30;84.40;;;;;;6178976;23;20436;-78
2022/05/10 09:11:51;;;;;;;7.50;6.73;;;30.50;81.80;;;;;;6190633;23;20475;-78
2022/05/10 09:14:25;;;;;;;7.53;7.00;;;30.40;82.50;;;;;;6193021;23;21311;-78
2022/05/10 09:16:53;;;;;;;8.17;7.57;;;30.40;79.50;;;;;;6193739;23;20426;-78
2022/05/10 09:19:20;;;;;;;7.87;7.37;;;30.60;78.30;;;;;;6188873;23;20818;-78
2022/05/10 09:21:55;;;;;;;7.17;6.67;;;30.80;77.10;;;;;;6191730;23;20442;-79
2022/05/10 09:24:33;;;;;;;7.30;6.80;;;30.90;77.20;;;;;;6192267;23;20542;-78
2022/05/10 09:27:05;;;;;;;7.10;6.60;;;31.20;76.70;;;;;;6182417;23;21002;-78
2022/05/10 09:29:36;;;;;;;7.30;6.70;;;31.60;74.20;;;;;;6178414;23;20515;-78
2022/05/10 09:35:00;;;;;;;7.00;6.50;;;31.50;74.40;;;;;;6193096;23;20538;-78
2022/05/10 09:37:31;;;;;;;7.50;7.00;;;31.50;72.60;;;;;;6180076;23;20519;-79
2022/05/10 09:40:10;;;;;;;7.30;6.80;;;31.80;72.10;;;;;;6183075;23;20490;-79
2022/05/10 09:42:41;;;;;;;7.30;6.80;;;31.80;70.60;;;;;;6186856;23;20431;-80
2022/05/10 09:45:14;;;;;;;6.63;6.23;;;32.30;71.40;;;;;;6180189;23;20950;-79
2022/05/10 09:47:53;;;;;;;5.70;5.30;;;32.50;69.60;;;;;;6179121;23;20458;-79
2022/05/10 09:50:26;;;;;;;5.87;5.50;;;32.40;67.10;;;;;;6184287;23;20903;-79
2022/05/10 09:53:10;;;;;;;6.10;5.70;;;32.70;65.20;;;;;;6181785;23;20511;-79
2022/05/10 09:55:37;;;;;;;5.27;4.97;;;33.30;61.80;;;;;;6193305;23;20528;-79
2022/05/10 09:58:18;;;;;;;5.93;5.37;;;33.00;62.80;;;;;;6189607;23;20435;-80
2022/05/10 10:00:51;;;;;;;5.93;5.53;;;33.60;62.00;;;;;;6185815;23;20463;-79
2022/05/10 10:03:26;;;;;;;5.90;5.50;;;33.10;59.70;;;;;;6149410;22;20470;-74
2022/05/10 10:05:55;;;;;;;5.70;5.40;;;33.30;59.40;;;;;;6136085;23;20829;-74
2022/05/10 10:08:40;;;;;;;6.23;5.73;;;33.20;59.00;;;;;;6144949;23;20448;-74
2022/05/10 10:11:26;;;;;;;6.00;5.57;;;32.80;58.10;;;;;;6113039;23;21388;-74
2022/05/10 10:13:56;;;;;;;5.77;5.40;;;32.80;58.90;;;;;;6116083;23;20437;-74
2022/05/10 10:16:25;;;;;;;6.17;5.67;;;33.10;58.50;;;;;;6113839;23;20825;-73
2022/05/10 10:18:55;;;;;;;6.07;5.67;;;33.30;58.70;;;;;;6112290;23;20473;-74
2022/05/10 10:21:28;;;;;;;6.13;5.73;;;33.40;57.80;;;;;;6113585;23;20506;-74
2022/05/10 10:23:58;;;;;;;6.27;5.87;;;33.40;57.80;;;;;;6099634;23;20500;-74
2022/05/10 10:26:34;;;;;;;5.70;5.30;;;33.80;58.40;;;;;;6107014;23;21154;-74
2022/05/10 10:29:11;;;;;;;5.90;5.40;;;34.50;56.40;;;;;;6113895;23;20461;-74
2022/05/10 10:31:42;;;;;;;6.00;5.60;;;35.00;55.10;;;;;;6108435;23;20437;-74
2022/05/10 10:34:17;;;;;;;5.77;5.40;;;34.70;56.50;;;;;;6111319;23;20462;-74
2022/05/10 10:36:55;;;;;;;6.00;5.50;;;34.30;55.60;;;;;;6115992;23;20502;-74
2022/05/10 10:39:30;;;;;;;5.63;5.23;;;34.00;54.40;;;;;;6119693;23;20462;-74
2022/05/10 10:42:07;;;;;;;5.87;5.40;;;33.60;55.50;;;;;;6110865;23;20435;-74
2022/05/10 10:44:39;;;;;;;6.23;5.83;;;33.50;55.30;;;;;;6111116;23;20440;-74
2022/05/10 10:47:18;;;;;;;5.30;4.80;;;33.00;55.30;;;;;;6104209;23;20477;-74
2022/05/10 10:49:49;;;;;;;5.87;5.27;;;32.50;55.70;;;;;;6113155;23;20469;-73
2022/05/10 10:52:17;;;;;;;5.90;5.30;;;31.50;57.40;;;;;;6110548;23;20931;-73
2022/05/10 10:54:45;;;;;;;6.93;6.43;;;30.40;57.90;;;;;;6109076;23;21690;-74
2022/05/10 10:57:36;;;;;;;6.43;6.03;;;29.60;59.10;;;;;;6114732;23;20774;-74
2022/05/10 11:00:13;;;;;;;5.60;5.20;;;28.70;60.20;;;;;;6112236;23;20496;-74
2022/05/10 11:03:17;;;;;;;6.00;5.60;;;28.20;61.00;;;;;;6110694;23;21025;-74
2022/05/10 11:06:15;;;;;;;6.30;5.90;;;28.10;61.70;;;;;;6110450;23;20455;-74
2022/05/10 11:09:03;;;;;;;5.10;4.80;;;28.10;63.40;;;;;;6111206;23;20480;-74
2022/05/10 11:11:42;;;;;;;5.80;5.47;;;28.20;63.40;;;;;;6116879;23;20441;-74
2022/05/10 11:14:25;;;;;;;6.50;5.90;;;28.20;63.60;;;;;;6116136;23;20440;-74
2022/05/10 11:17:02;;;;;;;5.53;5.10;;;28.30;64.30;;;;;;6106214;23;20457;-74
2022/05/10 11:19:57;;;;;;;5.73;5.27;;;29.00;64.70;;;;;;6111811;23;20816;-74
2022/05/10 11:22:35;;;;;;;6.17;5.70;;;29.70;60.70;;;;;;6108788;23;20954;-76
2022/05/10 11:25:19;;;;;;;5.57;5.17;;;30.10;60.10;;;;;;6106945;23;20437;-74
2022/05/10 11:28:07;;;;;;;5.50;5.10;;;30.90;58.70;;;;;;6109210;23;20492;-74
2022/05/10 11:30:45;;;;;;;5.73;5.40;;;31.20;58.00;;;;;;6093987;23;20457;-74
2022/05/10 11:33:23;;;;;;;6.20;5.77;;;30.20;57.50;;;;;;6098368;23;20445;-74
2022/05/10 11:36:03;;;;;;;5.27;4.83;;;29.50;58.70;;;;;;6089373;23;21067;-75
2022/05/10 11:38:56;;;;;;;5.77;5.23;;;28.90;60.90;;;;;;6096194;23;20497;-75
2022/05/10 11:41:33;;;;;;;5.40;5.10;;;28.90;62.70;;;;;;6100498;23;20436;-75
2022/05/10 11:44:24;;;;;;;5.40;5.10;;;29.20;60.80;;;;;;6100487;23;21042;-74
2022/05/10 11:47:21;;;;;;;5.70;5.30;;;29.30;60.20;;;;;;6101952;23;20514;-85
2022/05/10 11:50:25;;;;;;;5.60;5.30;;;29.60;60.40;;;;;;6071270;23;20871;-86
2022/05/10 11:53:12;;;;;;;5.63;5.20;;;29.50;60.20;;;;;;6113662;23;20448;-90
2022/05/10 11:55:52;;;;;;;5.37;5.07;;;29.30;59.90;;;;;;6117960;23;20493;-90
2022/05/10 11:58:20;;;;;;;5.73;5.30;;;29.30;60.50;;;;;;6119264;23;20527;-89
2022/05/10 12:00:54;;;;;;;5.00;4.60;;;29.90;59.50;;;;;;6113749;23;20452;-80
2022/05/10 12:03:52;;;;;;;5.47;5.17;;;30.20;60.00;;;;;;6116492;23;20450;-80
2022/05/10 12:06:38;;;;;;;5.20;4.80;;;30.10;58.80;;;;;;6040267;23;20594;-80
2022/05/10 12:09:12;;;;;;;4.80;4.50;;;30.20;58.30;;;;;;6111133;23;20464;-77
2022/05/10 12:11:44;;;;;;;4.93;4.50;;;30.70;58.60;;;;;;6106573;23;20442;-79
2022/05/10 12:23:18;;;;;;;5.60;5.07;;;30.90;56.40;;;;;;6102499;23;20442;-76
2022/05/10 12:25:59;;;;;;;4.50;4.20;;;30.80;57.40;;;;;;6116018;23;21298;-76
2022/05/10 12:28:38;;;;;;;5.10;4.80;;;30.80;56.70;;;;;;6113658;23;20471;-76
2022/05/10 12:31:46;;;;;;;5.70;5.30;;;30.60;56.80;;;;;;6105488;23;20469;-76
2022/05/10 12:34:48;;;;;;;5.30;4.93;;;30.20;58.10;;;;;;6110416;23;20483;-76
2022/05/10 12:37:42;;;;;;;5.80;5.40;;;29.70;57.70;;;;;;6107911;23;20465;-76
2022/05/10 12:40:51;;;;;;;5.30;5.00;;;30.10;58.50;;;;;;6111609;23;20453;-75
2022/05/10 12:44:12;;;;;;;5.40;5.10;;;30.90;57.80;;;;;;6111501;23;20448;-76
2022/05/10 12:46:52;;;;;;;4.50;4.30;;;31.80;55.10;;;;;;6103626;23;20524;-76
2022/05/10 12:49:33;;;;;;;5.43;4.93;;;32.60;54.50;;;;;;6112582;23;20985;-76
2022/05/10 12:52:20;;;;;;;5.30;5.00;;;33.10;54.10;;;;;;6102822;23;20639;-76
2022/05/10 12:54:53;;;;;;;5.30;4.90;;;33.60;53.10;;;;;;6100702;23;20461;-76
2022/05/10 12:57:29;;;;;;;4.73;4.43;;;34.10;52.80;;;;;;6113509;23;20534;-76
2022/05/10 13:00:03;;;;;;;4.77;4.47;;;34.00;53.50;;;;;;6113790;23;20516;-76
2022/05/10 13:02:31;;;;;;;4.77;4.30;;;34.60;52.70;;;;;;6103608;23;20480;-76
2022/05/10 13:05:03;;;;;;;5.47;4.93;;;35.20;53.10;;;;;;6113952;23;20520;-78
2022/05/10 13:08:09;;;;;;;5.60;5.20;;;35.30;50.80;;;;;;6114973;23;20552;-76
2022/05/10 13:10:37;;;;;;;4.83;4.33;;;35.00;49.10;;;;;;6074809;23;20449;-76
2022/05/10 13:13:10;;;;;;;4.50;4.20;;;34.70;50.70;;;;;;6107659;23;20967;-78
2022/05/10 13:15:42;;;;;;;5.10;4.70;;;34.50;50.60;;;;;;6105091;23;20438;-77
2022/05/10 13:18:14;;;;;;;4.20;3.90;;;34.50;49.50;;;;;;6098917;23;20458;-77
2022/05/10 13:20:50;;;;;;;4.60;4.30;;;34.50;49.80;;;;;;6114618;23;20436;-77
2022/05/10 13:23:18;;;;;;;4.90;4.40;;;34.90;50.20;;;;;;6112679;23;20469;-77